sensor_id;sensor_type;location;lat;lon;timestamp;temperature;humidity
70762;DHT22;58360;0.000;0.000;2023-03-01T00:01:48;1.90;65.80
70762;DHT22;58360;0.000;0.000;2023-03-01T00:04:13;1.80;65.50
70762;DHT22;58360;0.000;0.000;2023-03-01T00:06:42;1.80;65.90
70762;DHT22;58360;0.000;0.000;2023-03-01T00:09:11;1.90;65.90
70762;DHT22;58360;0.000;0.000;2023-03-01T00:11:37;1.90;65.90
70762;DHT22;58360;0.000;0.000;2023-03-01T00:14:03;1.80;65.90
70762;DHT22;58360;0.000;0.000;2023-03-01T00:16:36;1.80;66.10
70762;DHT22;58360;0.000;0.000;2023-03-01T00:19:04;1.80;66.10
70762;DHT22;58360;0.000;0.000;2023-03-01T00:21:30;1.80;65.80
70762;DHT22;58360;0.000;0.000;2023-03-01T00:23:56;1.70;66.10
70762;DHT22;58360;0.000;0.000;2023-03-01T00:26:23;1.70;66.50
70762;DHT22;58360;0.000;0.000;2023-03-01T00:28:50;1.60;66.60
70762;DHT22;58360;0.000;0.000;2023-03-01T00:31:21;1.70;67.00
70762;DHT22;58360;0.000;0.000;2023-03-01T00:33:47;1.60;67.00
70762;DHT22;58360;0.000;0.000;2023-03-01T00:36:14;1.60;67.30
70762;DHT22;58360;0.000;0.000;2023-03-01T00:38:42;1.60;66.90
70762;DHT22;58360;0.000;0.000;2023-03-01T00:41:14;1.60;67.30
70762;DHT22;58360;0.000;0.000;2023-03-01T00:43:40;1.50;67.10
70762;DHT22;58360;0.000;0.000;2023-03-01T00:46:09;1.50;67.40
70762;DHT22;58360;0.000;0.000;2023-03-01T00:48:35;1.50;67.50
70762;DHT22;58360;0.000;0.000;2023-03-01T00:51:22;1.50;67.90
70762;DHT22;58360;0.000;0.000;2023-03-01T00:53:50;1.60;68.00
70762;DHT22;58360;0.000;0.000;2023-03-01T00:56:16;1.50;67.70
70762;DHT22;58360;0.000;0.000;2023-03-01T00:58:42;1.50;68.00
70762;DHT22;58360;0.000;0.000;2023-03-01T01:01:16;1.50;68.10
70762;DHT22;58360;0.000;0.000;2023-03-01T01:03:44;1.60;67.90
70762;DHT22;58360;0.000;0.000;2023-03-01T01:08:47;1.50;67.90
70762;DHT22;58360;0.000;0.000;2023-03-01T01:11:13;1.50;68.40
70762;DHT22;58360;0.000;0.000;2023-03-01T01:13:40;1.50;68.30
70762;DHT22;58360;0.000;0.000;2023-03-01T01:16:06;1.40;68.20
70762;DHT22;58360;0.000;0.000;2023-03-01T01:18:32;1.40;68.80
70762;DHT22;58360;0.000;0.000;2023-03-01T01:20:58;1.30;69.40
70762;DHT22;58360;0.000;0.000;2023-03-01T01:23:28;1.30;69.40
70762;DHT22;58360;0.000;0.000;2023-03-01T01:25:53;1.40;69.10
70762;DHT22;58360;0.000;0.000;2023-03-01T01:28:19;1.40;69.10
70762;DHT22;58360;0.000;0.000;2023-03-01T01:30:44;1.40;69.00
70762;DHT22;58360;0.000;0.000;2023-03-01T01:33:10;1.20;69.50
70762;DHT22;58360;0.000;0.000;2023-03-01T01:35:36;1.20;69.60
70762;DHT22;58360;0.000;0.000;2023-03-01T01:38:01;1.30;69.60
70762;DHT22;58360;0.000;0.000;2023-03-01T01:40:27;1.20;69.70
70762;DHT22;58360;0.000;0.000;2023-03-01T01:42:53;1.30;69.70
70762;DHT22;58360;0.000;0.000;2023-03-01T01:45:28;1.20;69.60
70762;DHT22;58360;0.000;0.000;2023-03-01T01:47:58;1.20;69.70
70762;DHT22;58360;0.000;0.000;2023-03-01T01:50:26;1.20;69.90
70762;DHT22;58360;0.000;0.000;2023-03-01T01:52:52;1.30;69.60
70762;DHT22;58360;0.000;0.000;2023-03-01T01:55:22;1.30;69.50
70762;DHT22;58360;0.000;0.000;2023-03-01T01:57:53;1.20;69.80
70762;DHT22;58360;0.000;0.000;2023-03-01T02:00:27;1.20;70.10
70762;DHT22;58360;0.000;0.000;2023-03-01T02:02:59;1.00;70.40
70762;DHT22;58360;0.000;0.000;2023-03-01T02:08:11;0.90;71.00
70762;DHT22;58360;0.000;0.000;2023-03-01T02:10:37;0.90;71.20
70762;DHT22;58360;0.000;0.000;2023-03-01T02:13:04;0.90;71.40
70762;DHT22;58360;0.000;0.000;2023-03-01T02:15:34;0.90;71.40
70762;DHT22;58360;0.000;0.000;2023-03-01T02:18:01;0.80;71.50
70762;DHT22;58360;0.000;0.000;2023-03-01T02:23:20;0.70;72.00
70762;DHT22;58360;0.000;0.000;2023-03-01T02:26:01;0.80;71.80
70762;DHT22;58360;0.000;0.000;2023-03-01T02:28:37;0.70;71.80
70762;DHT22;58360;0.000;0.000;2023-03-01T02:31:06;0.70;72.10
70762;DHT22;58360;0.000;0.000;2023-03-01T02:33:51;0.70;72.30
70762;DHT22;58360;0.000;0.000;2023-03-01T02:36:28;0.70;72.20
70762;DHT22;58360;0.000;0.000;2023-03-01T02:38:58;0.70;72.10
70762;DHT22;58360;0.000;0.000;2023-03-01T02:41:26;0.70;72.20
70762;DHT22;58360;0.000;0.000;2023-03-01T02:43:53;0.80;71.90
70762;DHT22;58360;0.000;0.000;2023-03-01T02:46:25;0.90;72.00
70762;DHT22;58360;0.000;0.000;2023-03-01T02:48:53;0.80;71.90
70762;DHT22;58360;0.000;0.000;2023-03-01T02:56:35;0.60;72.90
70762;DHT22;58360;0.000;0.000;2023-03-01T02:59:02;0.70;72.60
70762;DHT22;58360;0.000;0.000;2023-03-01T03:01:28;0.70;72.50
70762;DHT22;58360;0.000;0.000;2023-03-01T03:04:09;0.60;72.90
70762;DHT22;58360;0.000;0.000;2023-03-01T03:06:35;0.60;73.10
70762;DHT22;58360;0.000;0.000;2023-03-01T03:09:01;0.60;73.00
70762;DHT22;58360;0.000;0.000;2023-03-01T03:11:27;0.60;73.10
70762;DHT22;58360;0.000;0.000;2023-03-01T03:13:53;0.50;73.50
70762;DHT22;58360;0.000;0.000;2023-03-01T03:16:19;0.50;73.10
70762;DHT22;58360;0.000;0.000;2023-03-01T03:18:45;0.50;73.60
70762;DHT22;58360;0.000;0.000;2023-03-01T03:21:12;0.50;73.90
70762;DHT22;58360;0.000;0.000;2023-03-01T03:23:39;0.40;73.70
70762;DHT22;58360;0.000;0.000;2023-03-01T03:26:05;0.50;74.10
70762;DHT22;58360;0.000;0.000;2023-03-01T03:28:32;0.40;73.70
70762;DHT22;58360;0.000;0.000;2023-03-01T03:30:58;0.50;73.50
70762;DHT22;58360;0.000;0.000;2023-03-01T03:33:24;0.60;73.60
70762;DHT22;58360;0.000;0.000;2023-03-01T03:35:50;0.50;73.50
70762;DHT22;58360;0.000;0.000;2023-03-01T03:38:18;0.60;73.60
70762;DHT22;58360;0.000;0.000;2023-03-01T03:41:03;0.70;73.70
70762;DHT22;58360;0.000;0.000;2023-03-01T03:43:32;0.50;73.70
70762;DHT22;58360;0.000;0.000;2023-03-01T03:45:58;0.60;73.70
70762;DHT22;58360;0.000;0.000;2023-03-01T03:48:24;0.60;73.80
70762;DHT22;58360;0.000;0.000;2023-03-01T03:50:55;0.60;73.30
70762;DHT22;58360;0.000;0.000;2023-03-01T03:53:22;0.60;73.60
70762;DHT22;58360;0.000;0.000;2023-03-01T03:55:48;0.50;73.90
70762;DHT22;58360;0.000;0.000;2023-03-01T03:58:15;0.50;74.70
70762;DHT22;58360;0.000;0.000;2023-03-01T04:00:43;0.40;74.80
70762;DHT22;58360;0.000;0.000;2023-03-01T04:03:12;0.60;73.90
70762;DHT22;58360;0.000;0.000;2023-03-01T04:05:39;0.50;73.70
70762;DHT22;58360;0.000;0.000;2023-03-01T04:08:06;0.50;74.10
70762;DHT22;58360;0.000;0.000;2023-03-01T04:10:35;0.50;74.20
70762;DHT22;58360;0.000;0.000;2023-03-01T04:13:03;0.50;75.00
70762;DHT22;58360;0.000;0.000;2023-03-01T04:15:30;0.30;75.10
70762;DHT22;58360;0.000;0.000;2023-03-01T04:17:55;0.30;75.10
70762;DHT22;58360;0.000;0.000;2023-03-01T04:20:28;0.50;74.50
70762;DHT22;58360;0.000;0.000;2023-03-01T04:25:24;0.80;72.70
70762;DHT22;58360;0.000;0.000;2023-03-01T04:27:50;0.50;74.00
70762;DHT22;58360;0.000;0.000;2023-03-01T04:30:16;0.50;74.20
70762;DHT22;58360;0.000;0.000;2023-03-01T04:32:42;0.50;73.70
70762;DHT22;58360;0.000;0.000;2023-03-01T04:35:08;0.50;75.00
70762;DHT22;58360;0.000;0.000;2023-03-01T04:37:33;0.50;74.60
70762;DHT22;58360;0.000;0.000;2023-03-01T04:40:01;0.40;74.40
70762;DHT22;58360;0.000;0.000;2023-03-01T04:42:34;0.20;75.00
70762;DHT22;58360;0.000;0.000;2023-03-01T04:44:59;0.10;75.40
70762;DHT22;58360;0.000;0.000;2023-03-01T04:47:25;0.00;75.90
70762;DHT22;58360;0.000;0.000;2023-03-01T04:49:51;0.10;76.10
70762;DHT22;58360;0.000;0.000;2023-03-01T04:52:16;0.20;76.10
70762;DHT22;58360;0.000;0.000;2023-03-01T04:54:42;0.00;75.90
70762;DHT22;58360;0.000;0.000;2023-03-01T04:57:08;0.00;75.60
70762;DHT22;58360;0.000;0.000;2023-03-01T04:59:34;0.10;76.00
70762;DHT22;58360;0.000;0.000;2023-03-01T05:02:01;0.00;76.10
70762;DHT22;58360;0.000;0.000;2023-03-01T05:04:27;-0.10;76.10
70762;DHT22;58360;0.000;0.000;2023-03-01T05:06:53;-0.10;76.50
70762;DHT22;58360;0.000;0.000;2023-03-01T05:09:19;-0.10;76.50
70762;DHT22;58360;0.000;0.000;2023-03-01T05:11:45;-0.10;76.70
70762;DHT22;58360;0.000;0.000;2023-03-01T05:14:11;-0.10;76.50
70762;DHT22;58360;0.000;0.000;2023-03-01T05:16:37;-0.10;76.70
70762;DHT22;58360;0.000;0.000;2023-03-01T05:19:03;0.00;76.80
70762;DHT22;58360;0.000;0.000;2023-03-01T05:21:39;-0.20;76.80
70762;DHT22;58360;0.000;0.000;2023-03-01T05:24:25;-0.20;77.20
70762;DHT22;58360;0.000;0.000;2023-03-01T05:26:52;-0.20;77.50
70762;DHT22;58360;0.000;0.000;2023-03-01T05:29:22;-0.20;77.40
70762;DHT22;58360;0.000;0.000;2023-03-01T05:31:58;-0.20;77.50
70762;DHT22;58360;0.000;0.000;2023-03-01T05:34:25;-0.20;77.50
70762;DHT22;58360;0.000;0.000;2023-03-01T05:36:52;-0.20;77.50
70762;DHT22;58360;0.000;0.000;2023-03-01T05:39:26;-0.20;77.60
70762;DHT22;58360;0.000;0.000;2023-03-01T05:41:53;-0.30;77.70
70762;DHT22;58360;0.000;0.000;2023-03-01T05:44:19;0.00;77.80
70762;DHT22;58360;0.000;0.000;2023-03-01T05:46:44;-0.20;77.70
70762;DHT22;58360;0.000;0.000;2023-03-01T05:49:11;-0.20;77.80
70762;DHT22;58360;0.000;0.000;2023-03-01T05:51:39;-0.20;78.10
70762;DHT22;58360;0.000;0.000;2023-03-01T05:54:04;-0.20;78.10
70762;DHT22;58360;0.000;0.000;2023-03-01T05:56:36;-0.10;78.10
70762;DHT22;58360;0.000;0.000;2023-03-01T05:59:02;0.00;78.20
70762;DHT22;58360;0.000;0.000;2023-03-01T06:01:28;0.00;77.30
70762;DHT22;58360;0.000;0.000;2023-03-01T06:03:55;-0.10;77.70
70762;DHT22;58360;0.000;0.000;2023-03-01T06:06:21;-0.20;78.20
70762;DHT22;58360;0.000;0.000;2023-03-01T06:08:47;-0.20;78.50
70762;DHT22;58360;0.000;0.000;2023-03-01T06:11:12;-0.20;78.70
70762;DHT22;58360;0.000;0.000;2023-03-01T06:13:38;-0.20;78.70
70762;DHT22;58360;0.000;0.000;2023-03-01T06:16:05;-0.30;79.20
70762;DHT22;58360;0.000;0.000;2023-03-01T06:18:32;-0.40;79.60
70762;DHT22;58360;0.000;0.000;2023-03-01T06:20:57;-0.40;79.50
70762;DHT22;58360;0.000;0.000;2023-03-01T06:23:23;-0.30;79.20
70762;DHT22;58360;0.000;0.000;2023-03-01T06:25:50;-0.50;79.20
70762;DHT22;58360;0.000;0.000;2023-03-01T06:28:15;-0.40;79.20
70762;DHT22;58360;0.000;0.000;2023-03-01T06:30:41;-0.50;79.20
70762;DHT22;58360;0.000;0.000;2023-03-01T06:33:07;-0.50;79.60
70762;DHT22;58360;0.000;0.000;2023-03-01T06:35:32;-0.40;79.40
70762;DHT22;58360;0.000;0.000;2023-03-01T06:38:00;-0.40;79.10
70762;DHT22;58360;0.000;0.000;2023-03-01T06:40:26;-0.40;78.90
70762;DHT22;58360;0.000;0.000;2023-03-01T06:42:52;-0.40;79.20
70762;DHT22;58360;0.000;0.000;2023-03-01T06:45:20;-0.50;79.10
70762;DHT22;58360;0.000;0.000;2023-03-01T06:47:46;-0.50;79.30
70762;DHT22;58360;0.000;0.000;2023-03-01T06:50:12;-0.50;79.20
70762;DHT22;58360;0.000;0.000;2023-03-01T06:52:38;-0.40;79.40
70762;DHT22;58360;0.000;0.000;2023-03-01T06:55:04;-0.50;79.70
70762;DHT22;58360;0.000;0.000;2023-03-01T06:57:30;-0.50;80.00
70762;DHT22;58360;0.000;0.000;2023-03-01T06:59:56;-0.40;80.50
70762;DHT22;58360;0.000;0.000;2023-03-01T07:02:22;-0.20;80.00
70762;DHT22;58360;0.000;0.000;2023-03-01T07:04:51;-0.30;79.80
70762;DHT22;58360;0.000;0.000;2023-03-01T07:07:17;-0.10;79.40
70762;DHT22;58360;0.000;0.000;2023-03-01T07:09:44;0.00;78.20
70762;DHT22;58360;0.000;0.000;2023-03-01T07:12:10;0.20;77.80
70762;DHT22;58360;0.000;0.000;2023-03-01T07:14:36;0.20;77.80
70762;DHT22;58360;0.000;0.000;2023-03-01T07:17:02;0.20;77.30
70762;DHT22;58360;0.000;0.000;2023-03-01T07:19:27;0.20;77.60
70762;DHT22;58360;0.000;0.000;2023-03-01T07:21:53;0.20;77.60
70762;DHT22;58360;0.000;0.000;2023-03-01T07:24:21;0.30;77.50
70762;DHT22;58360;0.000;0.000;2023-03-01T07:26:51;0.30;77.20
70762;DHT22;58360;0.000;0.000;2023-03-01T07:29:17;0.40;77.00
70762;DHT22;58360;0.000;0.000;2023-03-01T07:31:44;0.70;75.70
70762;DHT22;58360;0.000;0.000;2023-03-01T07:34:10;0.90;74.90
70762;DHT22;58360;0.000;0.000;2023-03-01T07:36:37;0.80;75.20
70762;DHT22;58360;0.000;0.000;2023-03-01T07:39:02;0.70;75.50
70762;DHT22;58360;0.000;0.000;2023-03-01T07:41:29;0.90;75.40
70762;DHT22;58360;0.000;0.000;2023-03-01T07:43:55;0.80;75.40
70762;DHT22;58360;0.000;0.000;2023-03-01T07:46:20;1.00;75.10
70762;DHT22;58360;0.000;0.000;2023-03-01T07:48:46;1.10;74.60
70762;DHT22;58360;0.000;0.000;2023-03-01T07:51:12;1.20;73.80
70762;DHT22;58360;0.000;0.000;2023-03-01T07:53:38;1.30;73.00
70762;DHT22;58360;0.000;0.000;2023-03-01T07:56:12;1.30;72.90
70762;DHT22;58360;0.000;0.000;2023-03-01T07:58:40;1.30;73.10
70762;DHT22;58360;0.000;0.000;2023-03-01T08:01:08;1.40;72.90
70762;DHT22;58360;0.000;0.000;2023-03-01T08:03:35;1.50;72.30
70762;DHT22;58360;0.000;0.000;2023-03-01T08:06:02;1.60;72.00
70762;DHT22;58360;0.000;0.000;2023-03-01T08:08:29;1.60;71.90
70762;DHT22;58360;0.000;0.000;2023-03-01T08:10:59;1.60;71.40
70762;DHT22;58360;0.000;0.000;2023-03-01T08:13:29;1.70;71.70
70762;DHT22;58360;0.000;0.000;2023-03-01T08:15:59;2.00;70.00
70762;DHT22;58360;0.000;0.000;2023-03-01T08:18:25;2.10;69.80
70762;DHT22;58360;0.000;0.000;2023-03-01T08:20:51;2.00;70.30
70762;DHT22;58360;0.000;0.000;2023-03-01T08:23:16;2.10;70.50
70762;DHT22;58360;0.000;0.000;2023-03-01T08:25:42;2.10;69.90
70762;DHT22;58360;0.000;0.000;2023-03-01T08:28:08;2.20;70.10
70762;DHT22;58360;0.000;0.000;2023-03-01T08:30:34;2.10;70.30
70762;DHT22;58360;0.000;0.000;2023-03-01T08:33:00;2.10;70.80
70762;DHT22;58360;0.000;0.000;2023-03-01T08:35:25;2.20;70.00
70762;DHT22;58360;0.000;0.000;2023-03-01T08:37:51;2.30;68.90
70762;DHT22;58360;0.000;0.000;2023-03-01T08:40:17;2.40;69.50
70762;DHT22;58360;0.000;0.000;2023-03-01T08:42:42;2.50;68.80
70762;DHT22;58360;0.000;0.000;2023-03-01T08:45:09;2.50;68.70
70762;DHT22;58360;0.000;0.000;2023-03-01T08:47:36;2.70;68.30
70762;DHT22;58360;0.000;0.000;2023-03-01T08:50:03;2.80;66.90
70762;DHT22;58360;0.000;0.000;2023-03-01T08:52:29;2.80;67.00
70762;DHT22;58360;0.000;0.000;2023-03-01T08:54:55;2.70;67.70
70762;DHT22;58360;0.000;0.000;2023-03-01T08:57:21;2.80;67.00
70762;DHT22;58360;0.000;0.000;2023-03-01T08:59:47;2.80;67.20
70762;DHT22;58360;0.000;0.000;2023-03-01T09:02:15;2.90;67.00
70762;DHT22;58360;0.000;0.000;2023-03-01T09:04:41;3.10;66.10
70762;DHT22;58360;0.000;0.000;2023-03-01T09:07:07;3.10;65.90
70762;DHT22;58360;0.000;0.000;2023-03-01T09:09:33;3.10;65.70
70762;DHT22;58360;0.000;0.000;2023-03-01T09:11:58;3.10;65.40
70762;DHT22;58360;0.000;0.000;2023-03-01T09:14:24;3.10;65.70
70762;DHT22;58360;0.000;0.000;2023-03-01T09:16:50;3.10;66.60
70762;DHT22;58360;0.000;0.000;2023-03-01T09:19:15;3.20;65.70
70762;DHT22;58360;0.000;0.000;2023-03-01T09:21:41;3.40;65.00
70762;DHT22;58360;0.000;0.000;2023-03-01T09:24:22;3.50;64.70
70762;DHT22;58360;0.000;0.000;2023-03-01T09:26:48;3.60;63.50
70762;DHT22;58360;0.000;0.000;2023-03-01T09:29:15;3.70;63.10
70762;DHT22;58360;0.000;0.000;2023-03-01T09:31:41;3.60;63.70
70762;DHT22;58360;0.000;0.000;2023-03-01T09:34:07;3.70;63.60
70762;DHT22;58360;0.000;0.000;2023-03-01T09:36:33;3.80;63.20
70762;DHT22;58360;0.000;0.000;2023-03-01T09:38:59;3.90;63.10
70762;DHT22;58360;0.000;0.000;2023-03-01T09:44:13;4.10;61.90
70762;DHT22;58360;0.000;0.000;2023-03-01T09:46:44;4.00;61.00
70762;DHT22;58360;0.000;0.000;2023-03-01T09:49:19;4.00;61.30
70762;DHT22;58360;0.000;0.000;2023-03-01T09:52:17;4.00;60.50
70762;DHT22;58360;0.000;0.000;2023-03-01T09:54:45;4.00;61.20
70762;DHT22;58360;0.000;0.000;2023-03-01T10:02:43;4.10;61.40
70762;DHT22;58360;0.000;0.000;2023-03-01T10:06:08;4.20;61.30
70762;DHT22;58360;0.000;0.000;2023-03-01T10:08:41;4.30;60.00
70762;DHT22;58360;0.000;0.000;2023-03-01T10:11:32;4.50;60.80
70762;DHT22;58360;0.000;0.000;2023-03-01T10:14:39;4.50;59.40
70762;DHT22;58360;0.000;0.000;2023-03-01T10:17:04;4.70;59.70
70762;DHT22;58360;0.000;0.000;2023-03-01T10:19:39;4.80;59.10
70762;DHT22;58360;0.000;0.000;2023-03-01T10:22:21;4.70;59.90
70762;DHT22;58360;0.000;0.000;2023-03-01T10:24:47;4.80;59.50
70762;DHT22;58360;0.000;0.000;2023-03-01T10:30:19;5.00;57.70
70762;DHT22;58360;0.000;0.000;2023-03-01T10:32:48;4.90;57.50
70762;DHT22;58360;0.000;0.000;2023-03-01T10:35:33;4.80;57.30
70762;DHT22;58360;0.000;0.000;2023-03-01T10:38:08;4.90;57.30
70762;DHT22;58360;0.000;0.000;2023-03-01T10:40:35;4.90;56.80
70762;DHT22;58360;0.000;0.000;2023-03-01T10:43:04;5.00;56.70
70762;DHT22;58360;0.000;0.000;2023-03-01T10:45:37;5.00;56.50
70762;DHT22;58360;0.000;0.000;2023-03-01T10:48:14;5.10;56.70
70762;DHT22;58360;0.000;0.000;2023-03-01T10:50:43;5.20;56.70
70762;DHT22;58360;0.000;0.000;2023-03-01T10:53:28;5.20;55.80
70762;DHT22;58360;0.000;0.000;2023-03-01T10:56:11;5.30;55.30
70762;DHT22;58360;0.000;0.000;2023-03-01T10:58:41;5.50;55.00
70762;DHT22;58360;0.000;0.000;2023-03-01T11:06:31;5.90;55.00
70762;DHT22;58360;0.000;0.000;2023-03-01T11:09:17;6.00;54.60
70762;DHT22;58360;0.000;0.000;2023-03-01T11:11:44;6.00;55.10
70762;DHT22;58360;0.000;0.000;2023-03-01T11:14:17;6.00;53.80
70762;DHT22;58360;0.000;0.000;2023-03-01T11:16:45;6.00;54.40
70762;DHT22;58360;0.000;0.000;2023-03-01T11:21:41;6.30;54.30
70762;DHT22;58360;0.000;0.000;2023-03-01T11:24:14;6.40;52.70
70762;DHT22;58360;0.000;0.000;2023-03-01T11:26:45;6.30;53.30
70762;DHT22;58360;0.000;0.000;2023-03-01T11:29:40;6.50;53.00
70762;DHT22;58360;0.000;0.000;2023-03-01T11:32:09;6.60;52.30
70762;DHT22;58360;0.000;0.000;2023-03-01T11:41:15;7.10;51.20
70762;DHT22;58360;0.000;0.000;2023-03-01T11:46:23;7.10;50.60
70762;DHT22;58360;0.000;0.000;2023-03-01T11:54:35;7.50;50.20
70762;DHT22;58360;0.000;0.000;2023-03-01T12:08:15;8.00;47.70
70762;DHT22;58360;0.000;0.000;2023-03-01T12:13:49;8.00;47.20
70762;DHT22;58360;0.000;0.000;2023-03-01T12:21:58;7.70;49.70
70762;DHT22;58360;0.000;0.000;2023-03-01T12:38:01;8.70;45.70
70762;DHT22;58360;0.000;0.000;2023-03-01T12:49:26;8.70;46.20
70762;DHT22;58360;0.000;0.000;2023-03-01T12:52:29;8.70;46.50
70762;DHT22;58360;0.000;0.000;2023-03-01T12:55:00;8.70;46.10
70762;DHT22;58360;0.000;0.000;2023-03-01T12:57:46;8.70;46.60
70762;DHT22;58360;0.000;0.000;2023-03-01T13:00:32;8.60;46.20
70762;DHT22;58360;0.000;0.000;2023-03-01T13:04:02;8.60;46.10
70762;DHT22;58360;0.000;0.000;2023-03-01T13:06:08;8.50;45.80
70762;DHT22;58360;0.000;0.000;2023-03-01T13:11:26;8.60;46.30
70762;DHT22;58360;0.000;0.000;2023-03-01T13:13:51;9.30;44.90
70762;DHT22;58360;0.000;0.000;2023-03-01T13:16:40;10.20;42.80
70762;DHT22;58360;0.000;0.000;2023-03-01T13:19:29;11.40;41.80
70762;DHT22;58360;0.000;0.000;2023-03-01T13:22:25;12.40;40.30
70762;DHT22;58360;0.000;0.000;2023-03-01T13:25:03;13.40;38.00
70762;DHT22;58360;0.000;0.000;2023-03-01T13:27:36;13.80;36.60
70762;DHT22;58360;0.000;0.000;2023-03-01T13:30:02;13.90;35.70
70762;DHT22;58360;0.000;0.000;2023-03-01T13:32:36;14.30;35.70
70762;DHT22;58360;0.000;0.000;2023-03-01T13:37:41;15.30;35.20
70762;DHT22;58360;0.000;0.000;2023-03-01T13:50:52;13.70;36.00
70762;DHT22;58360;0.000;0.000;2023-03-01T13:53:20;14.00;35.90
70762;DHT22;58360;0.000;0.000;2023-03-01T13:56:12;13.90;35.60
70762;DHT22;58360;0.000;0.000;2023-03-01T13:58:49;13.90;35.40
70762;DHT22;58360;0.000;0.000;2023-03-01T14:01:30;13.60;36.30
70762;DHT22;58360;0.000;0.000;2023-03-01T14:03:57;13.40;36.50
70762;DHT22;58360;0.000;0.000;2023-03-01T14:06:30;13.40;37.50
70762;DHT22;58360;0.000;0.000;2023-03-01T14:14:32;14.50;36.40
70762;DHT22;58360;0.000;0.000;2023-03-01T14:19:46;14.50;37.30
70762;DHT22;58360;0.000;0.000;2023-03-01T14:22:24;14.70;36.30
70762;DHT22;58360;0.000;0.000;2023-03-01T14:24:56;14.80;36.00
70762;DHT22;58360;0.000;0.000;2023-03-01T14:27:28;14.80;36.20
70762;DHT22;58360;0.000;0.000;2023-03-01T14:30:01;14.40;36.30
70762;DHT22;58360;0.000;0.000;2023-03-01T14:32:29;14.10;37.10
70762;DHT22;58360;0.000;0.000;2023-03-01T14:34:57;13.70;37.30
70762;DHT22;58360;0.000;0.000;2023-03-01T14:37:28;13.40;38.60
70762;DHT22;58360;0.000;0.000;2023-03-01T14:39:54;13.20;37.90
70762;DHT22;58360;0.000;0.000;2023-03-01T14:42:23;13.30;38.10
70762;DHT22;58360;0.000;0.000;2023-03-01T14:44:52;13.40;37.30
70762;DHT22;58360;0.000;0.000;2023-03-01T14:47:38;13.60;37.90
70762;DHT22;58360;0.000;0.000;2023-03-01T14:50:15;13.60;37.20
70762;DHT22;58360;0.000;0.000;2023-03-01T14:52:46;13.50;37.50
70762;DHT22;58360;0.000;0.000;2023-03-01T14:55:21;13.60;38.00
70762;DHT22;58360;0.000;0.000;2023-03-01T14:57:49;13.60;36.60
70762;DHT22;58360;0.000;0.000;2023-03-01T15:00:24;13.30;37.10
70762;DHT22;58360;0.000;0.000;2023-03-01T15:02:53;13.20;37.60
70762;DHT22;58360;0.000;0.000;2023-03-01T15:05:32;12.90;37.20
70762;DHT22;58360;0.000;0.000;2023-03-01T15:08:01;12.60;36.70
70762;DHT22;58360;0.000;0.000;2023-03-01T15:10:36;12.20;38.20
70762;DHT22;58360;0.000;0.000;2023-03-01T15:13:22;12.20;37.80
70762;DHT22;58360;0.000;0.000;2023-03-01T15:15:48;12.00;39.50
70762;DHT22;58360;0.000;0.000;2023-03-01T15:18:22;11.90;39.10
70762;DHT22;58360;0.000;0.000;2023-03-01T15:20:51;11.90;38.70
70762;DHT22;58360;0.000;0.000;2023-03-01T15:23:28;11.90;39.50
70762;DHT22;58360;0.000;0.000;2023-03-01T15:25:56;11.90;39.50
70762;DHT22;58360;0.000;0.000;2023-03-01T15:28:24;12.10;38.80
70762;DHT22;58360;0.000;0.000;2023-03-01T15:31:21;12.00;38.70
70762;DHT22;58360;0.000;0.000;2023-03-01T15:33:47;12.00;38.90
70762;DHT22;58360;0.000;0.000;2023-03-01T15:36:42;11.60;39.80
70762;DHT22;58360;0.000;0.000;2023-03-01T15:39:34;11.40;40.10
70762;DHT22;58360;0.000;0.000;2023-03-01T15:44:35;11.30;39.20
70762;DHT22;58360;0.000;0.000;2023-03-01T15:47:01;11.10;40.00
70762;DHT22;58360;0.000;0.000;2023-03-01T15:49:36;10.90;40.20
70762;DHT22;58360;0.000;0.000;2023-03-01T15:52:03;10.50;40.40
70762;DHT22;58360;0.000;0.000;2023-03-01T15:54:29;10.20;41.20
70762;DHT22;58360;0.000;0.000;2023-03-01T15:56:55;10.00;42.10
70762;DHT22;58360;0.000;0.000;2023-03-01T15:59:21;10.10;42.40
70762;DHT22;58360;0.000;0.000;2023-03-01T16:01:48;10.20;42.30
70762;DHT22;58360;0.000;0.000;2023-03-01T16:04:16;10.30;41.90
70762;DHT22;58360;0.000;0.000;2023-03-01T16:06:53;10.20;41.90
70762;DHT22;58360;0.000;0.000;2023-03-01T16:09:23;10.20;42.40
70762;DHT22;58360;0.000;0.000;2023-03-01T16:11:50;10.10;42.10
70762;DHT22;58360;0.000;0.000;2023-03-01T16:14:16;9.80;43.30
70762;DHT22;58360;0.000;0.000;2023-03-01T16:16:43;9.40;43.40
70762;DHT22;58360;0.000;0.000;2023-03-01T16:19:09;9.20;44.30
70762;DHT22;58360;0.000;0.000;2023-03-01T16:21:35;9.00;44.70
70762;DHT22;58360;0.000;0.000;2023-03-01T16:24:01;8.80;45.10
70762;DHT22;58360;0.000;0.000;2023-03-01T16:26:27;8.70;45.40
70762;DHT22;58360;0.000;0.000;2023-03-01T16:28:57;8.60;45.80
70762;DHT22;58360;0.000;0.000;2023-03-01T16:31:23;8.40;46.60
70762;DHT22;58360;0.000;0.000;2023-03-01T16:33:53;8.40;47.10
70762;DHT22;58360;0.000;0.000;2023-03-01T16:36:20;8.20;47.00
70762;DHT22;58360;0.000;0.000;2023-03-01T16:38:48;8.30;47.00
70762;DHT22;58360;0.000;0.000;2023-03-01T16:41:16;8.40;46.90
70762;DHT22;58360;0.000;0.000;2023-03-01T16:43:43;8.40;47.00
70762;DHT22;58360;0.000;0.000;2023-03-01T16:46:14;8.30;47.40
70762;DHT22;58360;0.000;0.000;2023-03-01T16:48:40;8.30;47.20
70762;DHT22;58360;0.000;0.000;2023-03-01T16:51:07;8.20;47.20
70762;DHT22;58360;0.000;0.000;2023-03-01T16:53:33;8.20;48.00
70762;DHT22;58360;0.000;0.000;2023-03-01T16:56:02;8.10;48.30
70762;DHT22;58360;0.000;0.000;2023-03-01T16:58:28;8.10;48.40
70762;DHT22;58360;0.000;0.000;2023-03-01T17:00:55;8.10;48.60
70762;DHT22;58360;0.000;0.000;2023-03-01T17:03:22;8.00;49.00
70762;DHT22;58360;0.000;0.000;2023-03-01T17:05:49;8.00;48.90
70762;DHT22;58360;0.000;0.000;2023-03-01T17:08:15;8.00;49.50
70762;DHT22;58360;0.000;0.000;2023-03-01T17:10:41;7.90;48.80
70762;DHT22;58360;0.000;0.000;2023-03-01T17:13:09;7.70;49.10
70762;DHT22;58360;0.000;0.000;2023-03-01T17:15:38;7.70;49.10
70762;DHT22;58360;0.000;0.000;2023-03-01T17:18:05;7.70;49.20
70762;DHT22;58360;0.000;0.000;2023-03-01T17:20:30;7.80;49.10
70762;DHT22;58360;0.000;0.000;2023-03-01T17:22:56;7.70;49.20
70762;DHT22;58360;0.000;0.000;2023-03-01T17:25:23;7.80;49.40
70762;DHT22;58360;0.000;0.000;2023-03-01T17:27:48;7.60;49.30
70762;DHT22;58360;0.000;0.000;2023-03-01T17:30:14;7.70;49.40
70762;DHT22;58360;0.000;0.000;2023-03-01T17:32:41;7.50;49.70
70762;DHT22;58360;0.000;0.000;2023-03-01T17:35:07;7.50;49.70
70762;DHT22;58360;0.000;0.000;2023-03-01T17:37:33;7.40;49.90
70762;DHT22;58360;0.000;0.000;2023-03-01T17:39:59;7.40;50.00
70762;DHT22;58360;0.000;0.000;2023-03-01T17:42:25;7.40;50.20
70762;DHT22;58360;0.000;0.000;2023-03-01T17:44:51;7.30;50.50
70762;DHT22;58360;0.000;0.000;2023-03-01T17:47:16;7.30;50.50
70762;DHT22;58360;0.000;0.000;2023-03-01T17:49:42;7.40;50.20
70762;DHT22;58360;0.000;0.000;2023-03-01T17:52:08;7.30;51.20
70762;DHT22;58360;0.000;0.000;2023-03-01T17:54:34;7.10;51.40
70762;DHT22;58360;0.000;0.000;2023-03-01T17:56:59;7.10;51.10
70762;DHT22;58360;0.000;0.000;2023-03-01T17:59:25;7.10;51.70
70762;DHT22;58360;0.000;0.000;2023-03-01T18:01:56;7.20;51.50
70762;DHT22;58360;0.000;0.000;2023-03-01T18:04:23;7.20;51.20
70762;DHT22;58360;0.000;0.000;2023-03-01T18:06:49;7.10;51.80
70762;DHT22;58360;0.000;0.000;2023-03-01T18:09:15;6.90;52.20
70762;DHT22;58360;0.000;0.000;2023-03-01T18:11:41;6.90;52.90